<?xml version="1.0" encoding="UTF-8" standalone="no" ?>
<gpx xmlns="http://www.topografix.com/GPX/1/1" xmlns:xsi="http://www.w3.org/2001/XMLSchema-instance" xsi:schemaLocation="http://www.topografix.com/GPX/1/1 http://www.topografix.com/GPX/1/1/gpx.xsd" version="1.1" creator="VisuGPX - https://www.visugpx.com">
  <metadata>
    <name>La crête des Piochs</name>
  </metadata>
  <trk>
    <name><![CDATA[12212799-La crête des Piochs]]></name>
    <trkseg>
      <trkpt lat="43.74124" lon="3.50258">
        <ele>454</ele>
        <time>2020-10-28T07:37:57Z</time>
      </trkpt>
      <trkpt lat="43.74131" lon="3.50232">
        <ele>458</ele>
        <time>2020-10-28T07:38:24Z</time>
      </trkpt>
      <trkpt lat="43.74134" lon="3.50206">
        <ele>462</ele>
        <time>2020-10-28T07:38:49Z</time>
      </trkpt>
      <trkpt lat="43.74139" lon="3.50217">
        <ele>462</ele>
        <time>2020-10-28T07:39:02Z</time>
      </trkpt>
      <trkpt lat="43.74141" lon="3.50261">
        <ele>458</ele>
        <time>2020-10-28T07:39:44Z</time>
      </trkpt>
      <trkpt lat="43.74147" lon="3.50284">
        <ele>457</ele>
        <time>2020-10-28T07:40:08Z</time>
      </trkpt>
      <trkpt lat="43.74157" lon="3.50309">
        <ele>457</ele>
        <time>2020-10-28T07:40:35Z</time>
      </trkpt>
      <trkpt lat="43.74166" lon="3.50325">
        <ele>458</ele>
        <time>2020-10-28T07:40:55Z</time>
      </trkpt>
      <trkpt lat="43.74178" lon="3.50334">
        <ele>458</ele>
        <time>2020-10-28T07:41:13Z</time>
      </trkpt>
      <trkpt lat="43.74189" lon="3.50332">
        <ele>460</ele>
        <time>2020-10-28T07:41:28Z</time>
      </trkpt>
      <trkpt lat="43.74202" lon="3.50323">
        <ele>463</ele>
        <time>2020-10-28T07:41:47Z</time>
      </trkpt>
      <trkpt lat="43.74214" lon="3.50318">
        <ele>465</ele>
        <time>2020-10-28T07:42:04Z</time>
      </trkpt>
      <trkpt lat="43.74247" lon="3.50343">
        <ele>464</ele>
        <time>2020-10-28T07:42:54Z</time>
      </trkpt>
      <trkpt lat="43.74263" lon="3.50368">
        <ele>462</ele>
        <time>2020-10-28T07:43:26Z</time>
      </trkpt>
      <trkpt lat="43.7429" lon="3.50393">
        <ele>462</ele>
        <time>2020-10-28T07:44:10Z</time>
      </trkpt>
      <trkpt lat="43.74322" lon="3.50437">
        <ele>458</ele>
        <time>2020-10-28T07:45:10Z</time>
      </trkpt>
      <trkpt lat="43.74384" lon="3.50486">
        <ele>462</ele>
        <time>2020-10-28T07:46:45Z</time>
      </trkpt>
      <trkpt lat="43.74416" lon="3.50493">
        <ele>470</ele>
        <time>2020-10-28T07:47:28Z</time>
      </trkpt>
      <trkpt lat="43.74425" lon="3.50505">
        <ele>470</ele>
        <time>2020-10-28T07:47:45Z</time>
      </trkpt>
      <trkpt lat="43.74453" lon="3.50632">
        <ele>453</ele>
        <time>2020-10-28T07:49:53Z</time>
      </trkpt>
      <trkpt lat="43.74467" lon="3.50653">
        <ele>454</ele>
        <time>2020-10-28T07:50:21Z</time>
      </trkpt>
      <trkpt lat="43.74481" lon="3.50667">
        <ele>455</ele>
        <time>2020-10-28T07:50:44Z</time>
      </trkpt>
      <trkpt lat="43.74561" lon="3.50709">
        <ele>465</ele>
        <time>2020-10-28T07:52:38Z</time>
      </trkpt>
      <trkpt lat="43.74563" lon="3.50704">
        <ele>466</ele>
        <time>2020-10-28T07:52:43Z</time>
      </trkpt>
      <trkpt lat="43.7456" lon="3.50689">
        <ele>468</ele>
        <time>2020-10-28T07:52:58Z</time>
      </trkpt>
      <trkpt lat="43.74572" lon="3.5069">
        <ele>471</ele>
        <time>2020-10-28T07:53:14Z</time>
      </trkpt>
      <trkpt lat="43.74568" lon="3.50675">
        <ele>473</ele>
        <time>2020-10-28T07:53:30Z</time>
      </trkpt>
      <trkpt lat="43.74575" lon="3.5067">
        <ele>475</ele>
        <time>2020-10-28T07:53:40Z</time>
      </trkpt>
      <trkpt lat="43.74574" lon="3.50645">
        <ele>481</ele>
        <time>2020-10-28T07:54:05Z</time>
      </trkpt>
      <trkpt lat="43.74599" lon="3.50662">
        <ele>484</ele>
        <time>2020-10-28T07:54:42Z</time>
      </trkpt>
      <trkpt lat="43.74598" lon="3.5064">
        <ele>490</ele>
        <time>2020-10-28T07:55:03Z</time>
      </trkpt>
      <trkpt lat="43.74625" lon="3.50653">
        <ele>497</ele>
        <time>2020-10-28T07:55:41Z</time>
      </trkpt>
      <trkpt lat="43.74605" lon="3.50605">
        <ele>503</ele>
        <time>2020-10-28T07:56:34Z</time>
      </trkpt>
      <trkpt lat="43.746" lon="3.50583">
        <ele>507</ele>
        <time>2020-10-28T07:56:57Z</time>
      </trkpt>
      <trkpt lat="43.746" lon="3.50552">
        <ele>515</ele>
        <time>2020-10-28T07:57:27Z</time>
      </trkpt>
      <trkpt lat="43.74592" lon="3.5053">
        <ele>519</ele>
        <time>2020-10-28T07:57:50Z</time>
      </trkpt>
      <trkpt lat="43.74599" lon="3.50529">
        <ele>521</ele>
        <time>2020-10-28T07:58:00Z</time>
      </trkpt>
      <trkpt lat="43.74613" lon="3.50537">
        <ele>524</ele>
        <time>2020-10-28T07:58:20Z</time>
      </trkpt>
      <trkpt lat="43.74633" lon="3.50583">
        <ele>520</ele>
        <time>2020-10-28T07:59:12Z</time>
      </trkpt>
      <trkpt lat="43.74677" lon="3.50632">
        <ele>523</ele>
        <time>2020-10-28T08:00:27Z</time>
      </trkpt>
      <trkpt lat="43.74781" lon="3.50685">
        <ele>550</ele>
        <time>2020-10-28T08:02:55Z</time>
      </trkpt>
      <trkpt lat="43.74807" lon="3.50728">
        <ele>549</ele>
        <time>2020-10-28T08:03:49Z</time>
      </trkpt>
      <trkpt lat="43.74807" lon="3.50711">
        <ele>554</ele>
        <time>2020-10-28T08:04:05Z</time>
      </trkpt>
      <trkpt lat="43.74812" lon="3.50711">
        <ele>556</ele>
        <time>2020-10-28T08:04:12Z</time>
      </trkpt>
      <trkpt lat="43.74836" lon="3.50743">
        <ele>557</ele>
        <time>2020-10-28T08:04:57Z</time>
      </trkpt>
      <trkpt lat="43.74871" lon="3.50767">
        <ele>566</ele>
        <time>2020-10-28T08:05:49Z</time>
      </trkpt>
      <trkpt lat="43.74852" lon="3.50724">
        <ele>570</ele>
        <time>2020-10-28T08:06:37Z</time>
      </trkpt>
      <trkpt lat="43.74892" lon="3.50741">
        <ele>583</ele>
        <time>2020-10-28T08:07:33Z</time>
      </trkpt>
      <trkpt lat="43.74927" lon="3.50747">
        <ele>597</ele>
        <time>2020-10-28T08:08:20Z</time>
      </trkpt>
      <trkpt lat="43.74934" lon="3.50758">
        <ele>597</ele>
        <time>2020-10-28T08:08:34Z</time>
      </trkpt>
      <trkpt lat="43.74936" lon="3.50748">
        <ele>601</ele>
        <time>2020-10-28T08:08:44Z</time>
      </trkpt>
      <trkpt lat="43.74929" lon="3.50734">
        <ele>602</ele>
        <time>2020-10-28T08:09:01Z</time>
      </trkpt>
      <trkpt lat="43.74932" lon="3.50735">
        <ele>603</ele>
        <time>2020-10-28T08:09:05Z</time>
      </trkpt>
      <trkpt lat="43.74969" lon="3.50771">
        <ele>607</ele>
        <time>2020-10-28T08:10:05Z</time>
      </trkpt>
      <trkpt lat="43.75004" lon="3.50793">
        <ele>616</ele>
        <time>2020-10-28T08:10:56Z</time>
      </trkpt>
      <trkpt lat="43.75037" lon="3.50829">
        <ele>618</ele>
        <time>2020-10-28T08:11:53Z</time>
      </trkpt>
      <trkpt lat="43.75146" lon="3.50913">
        <ele>622</ele>
        <time>2020-10-28T08:14:39Z</time>
      </trkpt>
      <trkpt lat="43.75168" lon="3.50919">
        <ele>625</ele>
        <time>2020-10-28T08:15:09Z</time>
      </trkpt>
      <trkpt lat="43.75181" lon="3.50934">
        <ele>620</ele>
        <time>2020-10-28T08:15:32Z</time>
      </trkpt>
      <trkpt lat="43.75208" lon="3.50932">
        <ele>622</ele>
        <time>2020-10-28T08:16:08Z</time>
      </trkpt>
      <trkpt lat="43.75269" lon="3.50878">
        <ele>632</ele>
        <time>2020-10-28T08:17:44Z</time>
      </trkpt>
      <trkpt lat="43.75289" lon="3.50844">
        <ele>634</ele>
        <time>2020-10-28T08:18:26Z</time>
      </trkpt>
      <trkpt lat="43.75296" lon="3.50795">
        <ele>643</ele>
        <time>2020-10-28T08:19:15Z</time>
      </trkpt>
      <trkpt lat="43.75291" lon="3.50674">
        <ele>667</ele>
        <time>2020-10-28T08:21:11Z</time>
      </trkpt>
      <trkpt lat="43.75312" lon="3.50631">
        <ele>666</ele>
        <time>2020-10-28T08:22:02Z</time>
      </trkpt>
      <trkpt lat="43.75333" lon="3.50544">
        <ele>673</ele>
        <time>2020-10-28T08:23:30Z</time>
      </trkpt>
      <trkpt lat="43.75366" lon="3.50446">
        <ele>690</ele>
        <time>2020-10-28T08:25:14Z</time>
      </trkpt>
      <trkpt lat="43.75416" lon="3.50366">
        <ele>694</ele>
        <time>2020-10-28T08:26:56Z</time>
      </trkpt>
      <trkpt lat="43.75433" lon="3.50353">
        <ele>699</ele>
        <time>2020-10-28T08:27:22Z</time>
      </trkpt>
      <trkpt lat="43.75442" lon="3.50336">
        <ele>702</ele>
        <time>2020-10-28T08:27:42Z</time>
      </trkpt>
      <trkpt lat="43.75456" lon="3.50329">
        <ele>704</ele>
        <time>2020-10-28T08:28:02Z</time>
      </trkpt>
      <trkpt lat="43.75472" lon="3.50301">
        <ele>708</ele>
        <time>2020-10-28T08:28:37Z</time>
      </trkpt>
      <trkpt lat="43.75474" lon="3.5024">
        <ele>713</ele>
        <time>2020-10-28T08:29:35Z</time>
      </trkpt>
      <trkpt lat="43.75483" lon="3.50211">
        <ele>716</ele>
        <time>2020-10-28T08:30:06Z</time>
      </trkpt>
      <trkpt lat="43.75477" lon="3.50173">
        <ele>720</ele>
        <time>2020-10-28T08:30:43Z</time>
      </trkpt>
      <trkpt lat="43.75488" lon="3.50158">
        <ele>721</ele>
        <time>2020-10-28T08:31:04Z</time>
      </trkpt>
      <trkpt lat="43.75494" lon="3.50139">
        <ele>723</ele>
        <time>2020-10-28T08:31:24Z</time>
      </trkpt>
      <trkpt lat="43.75484" lon="3.50087">
        <ele>727</ele>
        <time>2020-10-28T08:32:16Z</time>
      </trkpt>
      <trkpt lat="43.75486" lon="3.5008">
        <ele>727</ele>
        <time>2020-10-28T08:32:23Z</time>
      </trkpt>
      <trkpt lat="43.75504" lon="3.50065">
        <ele>728</ele>
        <time>2020-10-28T08:32:51Z</time>
      </trkpt>
      <trkpt lat="43.75525" lon="3.50067">
        <ele>730</ele>
        <time>2020-10-28T08:33:19Z</time>
      </trkpt>
      <trkpt lat="43.75533" lon="3.50052">
        <ele>730</ele>
        <time>2020-10-28T08:33:37Z</time>
      </trkpt>
      <trkpt lat="43.75548" lon="3.50068">
        <ele>732</ele>
        <time>2020-10-28T08:34:02Z</time>
      </trkpt>
      <trkpt lat="43.75568" lon="3.50082">
        <ele>735</ele>
        <time>2020-10-28T08:34:32Z</time>
      </trkpt>
      <trkpt lat="43.75587" lon="3.50079">
        <ele>737</ele>
        <time>2020-10-28T08:34:58Z</time>
      </trkpt>
      <trkpt lat="43.75605" lon="3.5008">
        <ele>737</ele>
        <time>2020-10-28T08:35:22Z</time>
      </trkpt>
      <trkpt lat="43.75647" lon="3.5007">
        <ele>738</ele>
        <time>2020-10-28T08:36:19Z</time>
      </trkpt>
      <trkpt lat="43.75651" lon="3.50075">
        <ele>739</ele>
        <time>2020-10-28T08:36:26Z</time>
      </trkpt>
      <trkpt lat="43.75641" lon="3.50111">
        <ele>741</ele>
        <time>2020-10-28T08:37:03Z</time>
      </trkpt>
      <trkpt lat="43.7564" lon="3.50137">
        <ele>742</ele>
        <time>2020-10-28T08:37:28Z</time>
      </trkpt>
      <trkpt lat="43.75639" lon="3.50188">
        <ele>745</ele>
        <time>2020-10-28T08:38:17Z</time>
      </trkpt>
      <trkpt lat="43.75644" lon="3.50192">
        <ele>746</ele>
        <time>2020-10-28T08:38:25Z</time>
      </trkpt>
      <trkpt lat="43.75665" lon="3.50185">
        <ele>749</ele>
        <time>2020-10-28T08:38:54Z</time>
      </trkpt>
      <trkpt lat="43.75691" lon="3.50186">
        <ele>750</ele>
        <time>2020-10-28T08:39:29Z</time>
      </trkpt>
      <trkpt lat="43.75721" lon="3.50181">
        <ele>750</ele>
        <time>2020-10-28T08:40:09Z</time>
      </trkpt>
      <trkpt lat="43.75765" lon="3.50192">
        <ele>752</ele>
        <time>2020-10-28T08:41:09Z</time>
      </trkpt>
      <trkpt lat="43.75771" lon="3.50201">
        <ele>754</ele>
        <time>2020-10-28T08:41:20Z</time>
      </trkpt>
      <trkpt lat="43.75775" lon="3.50213">
        <ele>755</ele>
        <time>2020-10-28T08:41:33Z</time>
      </trkpt>
      <trkpt lat="43.75782" lon="3.50219">
        <ele>756</ele>
        <time>2020-10-28T08:41:44Z</time>
      </trkpt>
      <trkpt lat="43.758" lon="3.50217">
        <ele>756</ele>
        <time>2020-10-28T08:42:08Z</time>
      </trkpt>
      <trkpt lat="43.75817" lon="3.50232">
        <ele>758</ele>
        <time>2020-10-28T08:42:35Z</time>
      </trkpt>
      <trkpt lat="43.75833" lon="3.50229">
        <ele>758</ele>
        <time>2020-10-28T08:42:57Z</time>
      </trkpt>
      <trkpt lat="43.75841" lon="3.50243">
        <ele>760</ele>
        <time>2020-10-28T08:43:14Z</time>
      </trkpt>
      <trkpt lat="43.7587" lon="3.50264">
        <ele>763</ele>
        <time>2020-10-28T08:43:58Z</time>
      </trkpt>
      <trkpt lat="43.75884" lon="3.50262">
        <ele>765</ele>
        <time>2020-10-28T08:44:16Z</time>
      </trkpt>
      <trkpt lat="43.75903" lon="3.50274">
        <ele>766</ele>
        <time>2020-10-28T08:44:44Z</time>
      </trkpt>
      <trkpt lat="43.7593" lon="3.50323">
        <ele>768</ele>
        <time>2020-10-28T08:45:44Z</time>
      </trkpt>
      <trkpt lat="43.75931" lon="3.50348">
        <ele>766</ele>
        <time>2020-10-28T08:46:08Z</time>
      </trkpt>
      <trkpt lat="43.7594" lon="3.50373">
        <ele>765</ele>
        <time>2020-10-28T08:46:35Z</time>
      </trkpt>
      <trkpt lat="43.75951" lon="3.50391">
        <ele>765</ele>
        <time>2020-10-28T08:46:57Z</time>
      </trkpt>
      <trkpt lat="43.75966" lon="3.504">
        <ele>767</ele>
        <time>2020-10-28T08:47:19Z</time>
      </trkpt>
      <trkpt lat="43.75998" lon="3.50433">
        <ele>768</ele>
        <time>2020-10-28T08:48:13Z</time>
      </trkpt>
      <trkpt lat="43.76013" lon="3.5049">
        <ele>763</ele>
        <time>2020-10-28T08:49:11Z</time>
      </trkpt>
      <trkpt lat="43.76027" lon="3.50535">
        <ele>758</ele>
        <time>2020-10-28T08:49:58Z</time>
      </trkpt>
      <trkpt lat="43.76045" lon="3.50568">
        <ele>755</ele>
        <time>2020-10-28T08:50:38Z</time>
      </trkpt>
      <trkpt lat="43.76073" lon="3.50604">
        <ele>752</ele>
        <time>2020-10-28T08:51:29Z</time>
      </trkpt>
      <trkpt lat="43.76118" lon="3.50615">
        <ele>754</ele>
        <time>2020-10-28T08:52:30Z</time>
      </trkpt>
      <trkpt lat="43.76169" lon="3.50629">
        <ele>756</ele>
        <time>2020-10-28T08:53:39Z</time>
      </trkpt>
      <trkpt lat="43.76218" lon="3.50644">
        <ele>761</ele>
        <time>2020-10-28T08:54:46Z</time>
      </trkpt>
      <trkpt lat="43.76235" lon="3.5064">
        <ele>764</ele>
        <time>2020-10-28T08:55:09Z</time>
      </trkpt>
      <trkpt lat="43.7628" lon="3.5067">
        <ele>767</ele>
        <time>2020-10-28T08:56:16Z</time>
      </trkpt>
      <trkpt lat="43.76334" lon="3.50759">
        <ele>767</ele>
        <time>2020-10-28T08:58:08Z</time>
      </trkpt>
      <trkpt lat="43.76391" lon="3.50798">
        <ele>769</ele>
        <time>2020-10-28T08:59:33Z</time>
      </trkpt>
      <trkpt lat="43.76443" lon="3.50876">
        <ele>768</ele>
        <time>2020-10-28T09:01:15Z</time>
      </trkpt>
      <trkpt lat="43.76459" lon="3.50955">
        <ele>764</ele>
        <time>2020-10-28T09:02:34Z</time>
      </trkpt>
      <trkpt lat="43.76489" lon="3.50963">
        <ele>765</ele>
        <time>2020-10-28T09:03:15Z</time>
      </trkpt>
      <trkpt lat="43.76536" lon="3.51015">
        <ele>760</ele>
        <time>2020-10-28T09:04:35Z</time>
      </trkpt>
      <trkpt lat="43.76561" lon="3.51085">
        <ele>746</ele>
        <time>2020-10-28T09:05:51Z</time>
      </trkpt>
      <trkpt lat="43.76586" lon="3.51097">
        <ele>743</ele>
        <time>2020-10-28T09:06:26Z</time>
      </trkpt>
      <trkpt lat="43.76626" lon="3.51178">
        <ele>734</ele>
        <time>2020-10-28T09:08:01Z</time>
      </trkpt>
      <trkpt lat="43.76662" lon="3.51185">
        <ele>735</ele>
        <time>2020-10-28T09:08:49Z</time>
      </trkpt>
      <trkpt lat="43.76686" lon="3.51217">
        <ele>731</ele>
        <time>2020-10-28T09:09:33Z</time>
      </trkpt>
      <trkpt lat="43.76679" lon="3.51258">
        <ele>731</ele>
        <time>2020-10-28T09:10:14Z</time>
      </trkpt>
      <trkpt lat="43.76685" lon="3.51284">
        <ele>730</ele>
        <time>2020-10-28T09:10:40Z</time>
      </trkpt>
      <trkpt lat="43.76771" lon="3.51333">
        <ele>731</ele>
        <time>2020-10-28T09:12:44Z</time>
      </trkpt>
      <trkpt lat="43.76825" lon="3.51392">
        <ele>730</ele>
        <time>2020-10-28T09:14:16Z</time>
      </trkpt>
      <trkpt lat="43.76841" lon="3.51435">
        <ele>730</ele>
        <time>2020-10-28T09:15:03Z</time>
      </trkpt>
      <trkpt lat="43.76836" lon="3.51485">
        <ele>730</ele>
        <time>2020-10-28T09:15:52Z</time>
      </trkpt>
      <trkpt lat="43.76854" lon="3.51559">
        <ele>734</ele>
        <time>2020-10-28T09:17:07Z</time>
      </trkpt>
      <trkpt lat="43.76897" lon="3.51589">
        <ele>739</ele>
        <time>2020-10-28T09:18:11Z</time>
      </trkpt>
      <trkpt lat="43.76923" lon="3.51618">
        <ele>745</ele>
        <time>2020-10-28T09:18:56Z</time>
      </trkpt>
      <trkpt lat="43.76927" lon="3.51649">
        <ele>749</ele>
        <time>2020-10-28T09:19:26Z</time>
      </trkpt>
      <trkpt lat="43.76968" lon="3.51683">
        <ele>747</ele>
        <time>2020-10-28T09:20:30Z</time>
      </trkpt>
      <trkpt lat="43.76971" lon="3.51712">
        <ele>745</ele>
        <time>2020-10-28T09:20:58Z</time>
      </trkpt>
      <trkpt lat="43.7696" lon="3.51749">
        <ele>745</ele>
        <time>2020-10-28T09:21:36Z</time>
      </trkpt>
      <trkpt lat="43.76977" lon="3.51766">
        <ele>740</ele>
        <time>2020-10-28T09:22:04Z</time>
      </trkpt>
      <trkpt lat="43.76999" lon="3.51809">
        <ele>734</ele>
        <time>2020-10-28T09:22:55Z</time>
      </trkpt>
      <trkpt lat="43.77016" lon="3.51823">
        <ele>732</ele>
        <time>2020-10-28T09:23:22Z</time>
      </trkpt>
      <trkpt lat="43.77033" lon="3.51856">
        <ele>729</ele>
        <time>2020-10-28T09:24:01Z</time>
      </trkpt>
      <trkpt lat="43.77059" lon="3.51895">
        <ele>729</ele>
        <time>2020-10-28T09:24:52Z</time>
      </trkpt>
      <trkpt lat="43.77079" lon="3.51896">
        <ele>730</ele>
        <time>2020-10-28T09:25:19Z</time>
      </trkpt>
      <trkpt lat="43.7711" lon="3.51873">
        <ele>728</ele>
        <time>2020-10-28T09:26:06Z</time>
      </trkpt>
      <trkpt lat="43.77199" lon="3.51884">
        <ele>728</ele>
        <time>2020-10-28T09:28:05Z</time>
      </trkpt>
      <trkpt lat="43.77229" lon="3.51965">
        <ele>726</ele>
        <time>2020-10-28T09:29:32Z</time>
      </trkpt>
      <trkpt lat="43.77265" lon="3.51996">
        <ele>728</ele>
        <time>2020-10-28T09:30:29Z</time>
      </trkpt>
      <trkpt lat="43.77264" lon="3.52028">
        <ele>723</ele>
        <time>2020-10-28T09:31:00Z</time>
      </trkpt>
      <trkpt lat="43.77223" lon="3.52087">
        <ele>702</ele>
        <time>2020-10-28T09:32:19Z</time>
      </trkpt>
      <trkpt lat="43.77202" lon="3.52167">
        <ele>688</ele>
        <time>2020-10-28T09:33:41Z</time>
      </trkpt>
      <trkpt lat="43.77218" lon="3.52232">
        <ele>679</ele>
        <time>2020-10-28T09:34:47Z</time>
      </trkpt>
      <trkpt lat="43.77242" lon="3.52256">
        <ele>678</ele>
        <time>2020-10-28T09:35:27Z</time>
      </trkpt>
      <trkpt lat="43.77284" lon="3.52289">
        <ele>676</ele>
        <time>2020-10-28T09:36:31Z</time>
      </trkpt>
      <trkpt lat="43.77295" lon="3.52309">
        <ele>673</ele>
        <time>2020-10-28T09:36:55Z</time>
      </trkpt>
      <trkpt lat="43.77316" lon="3.524">
        <ele>660</ele>
        <time>2020-10-28T09:38:27Z</time>
      </trkpt>
      <trkpt lat="43.77332" lon="3.52436">
        <ele>659</ele>
        <time>2020-10-28T09:39:08Z</time>
      </trkpt>
      <trkpt lat="43.77297" lon="3.52592">
        <ele>633</ele>
        <time>2020-10-28T09:41:45Z</time>
      </trkpt>
      <trkpt lat="43.77339" lon="3.52683">
        <ele>627</ele>
        <time>2020-10-28T09:43:29Z</time>
      </trkpt>
      <trkpt lat="43.77388" lon="3.52721">
        <ele>622</ele>
        <time>2020-10-28T09:44:44Z</time>
      </trkpt>
      <trkpt lat="43.77422" lon="3.52758">
        <ele>615</ele>
        <time>2020-10-28T09:45:42Z</time>
      </trkpt>
      <trkpt lat="43.77449" lon="3.52798">
        <ele>606</ele>
        <time>2020-10-28T09:46:35Z</time>
      </trkpt>
      <trkpt lat="43.77465" lon="3.52834">
        <ele>597</ele>
        <time>2020-10-28T09:47:16Z</time>
      </trkpt>
      <trkpt lat="43.77504" lon="3.52861">
        <ele>596</ele>
        <time>2020-10-28T09:48:14Z</time>
      </trkpt>
      <trkpt lat="43.77499" lon="3.52903">
        <ele>585</ele>
        <time>2020-10-28T09:48:55Z</time>
      </trkpt>
      <trkpt lat="43.77537" lon="3.52941">
        <ele>583</ele>
        <time>2020-10-28T09:49:57Z</time>
      </trkpt>
      <trkpt lat="43.77552" lon="3.53033">
        <ele>571</ele>
        <time>2020-10-28T09:51:28Z</time>
      </trkpt>
      <trkpt lat="43.77557" lon="3.53058">
        <ele>569</ele>
        <time>2020-10-28T09:51:53Z</time>
      </trkpt>
      <trkpt lat="43.77544" lon="3.53073">
        <ele>565</ele>
        <time>2020-10-28T09:52:16Z</time>
      </trkpt>
      <trkpt lat="43.77544" lon="3.53073">
        <ele>565</ele>
        <time>2020-10-28T09:52:16Z</time>
      </trkpt>
      <trkpt lat="43.77514" lon="3.53076">
        <ele>560</ele>
        <time>2020-10-28T09:52:56Z</time>
      </trkpt>
      <trkpt lat="43.77494" lon="3.53091">
        <ele>555</ele>
        <time>2020-10-28T09:53:26Z</time>
      </trkpt>
      <trkpt lat="43.77476" lon="3.53094">
        <ele>551</ele>
        <time>2020-10-28T09:53:50Z</time>
      </trkpt>
      <trkpt lat="43.77471" lon="3.53101">
        <ele>550</ele>
        <time>2020-10-28T09:54:00Z</time>
      </trkpt>
      <trkpt lat="43.77465" lon="3.53123">
        <ele>547</ele>
        <time>2020-10-28T09:54:23Z</time>
      </trkpt>
      <trkpt lat="43.77454" lon="3.5314">
        <ele>544</ele>
        <time>2020-10-28T09:54:45Z</time>
      </trkpt>
      <trkpt lat="43.77449" lon="3.53145">
        <ele>543</ele>
        <time>2020-10-28T09:54:53Z</time>
      </trkpt>
      <trkpt lat="43.77393" lon="3.53166">
        <ele>533</ele>
        <time>2020-10-28T09:56:10Z</time>
      </trkpt>
      <trkpt lat="43.77377" lon="3.53169">
        <ele>530</ele>
        <time>2020-10-28T09:56:32Z</time>
      </trkpt>
      <trkpt lat="43.77366" lon="3.53167">
        <ele>529</ele>
        <time>2020-10-28T09:56:47Z</time>
      </trkpt>
      <trkpt lat="43.77344" lon="3.53168">
        <ele>525</ele>
        <time>2020-10-28T09:57:16Z</time>
      </trkpt>
      <trkpt lat="43.77329" lon="3.53173">
        <ele>523</ele>
        <time>2020-10-28T09:57:37Z</time>
      </trkpt>
      <trkpt lat="43.77308" lon="3.53186">
        <ele>520</ele>
        <time>2020-10-28T09:58:07Z</time>
      </trkpt>
      <trkpt lat="43.77278" lon="3.53186">
        <ele>516</ele>
        <time>2020-10-28T09:58:47Z</time>
      </trkpt>
      <trkpt lat="43.77271" lon="3.53189">
        <ele>515</ele>
        <time>2020-10-28T09:58:57Z</time>
      </trkpt>
      <trkpt lat="43.77261" lon="3.53197">
        <ele>514</ele>
        <time>2020-10-28T09:59:12Z</time>
      </trkpt>
      <trkpt lat="43.77257" lon="3.53204">
        <ele>513</ele>
        <time>2020-10-28T09:59:21Z</time>
      </trkpt>
      <trkpt lat="43.77253" lon="3.53207">
        <ele>513</ele>
        <time>2020-10-28T09:59:27Z</time>
      </trkpt>
      <trkpt lat="43.77247" lon="3.53207">
        <ele>512</ele>
        <time>2020-10-28T09:59:35Z</time>
      </trkpt>
      <trkpt lat="43.77243" lon="3.53203">
        <ele>512</ele>
        <time>2020-10-28T09:59:42Z</time>
      </trkpt>
      <trkpt lat="43.77238" lon="3.53189">
        <ele>511</ele>
        <time>2020-10-28T09:59:57Z</time>
      </trkpt>
      <trkpt lat="43.77221" lon="3.53184">
        <ele>509</ele>
        <time>2020-10-28T10:00:20Z</time>
      </trkpt>
      <trkpt lat="43.77207" lon="3.5319">
        <ele>508</ele>
        <time>2020-10-28T10:00:40Z</time>
      </trkpt>
      <trkpt lat="43.77201" lon="3.53185">
        <ele>507</ele>
        <time>2020-10-28T10:00:49Z</time>
      </trkpt>
      <trkpt lat="43.77189" lon="3.53182">
        <ele>505</ele>
        <time>2020-10-28T10:01:05Z</time>
      </trkpt>
      <trkpt lat="43.77174" lon="3.53189">
        <ele>504</ele>
        <time>2020-10-28T10:01:26Z</time>
      </trkpt>
      <trkpt lat="43.77167" lon="3.53187">
        <ele>503</ele>
        <time>2020-10-28T10:01:36Z</time>
      </trkpt>
      <trkpt lat="43.77156" lon="3.53162">
        <ele>502</ele>
        <time>2020-10-28T10:02:04Z</time>
      </trkpt>
      <trkpt lat="43.77148" lon="3.5315">
        <ele>501</ele>
        <time>2020-10-28T10:02:20Z</time>
      </trkpt>
      <trkpt lat="43.77094" lon="3.53136">
        <ele>496</ele>
        <time>2020-10-28T10:03:33Z</time>
      </trkpt>
      <trkpt lat="43.77081" lon="3.53138">
        <ele>495</ele>
        <time>2020-10-28T10:03:51Z</time>
      </trkpt>
      <trkpt lat="43.77069" lon="3.53144">
        <ele>494</ele>
        <time>2020-10-28T10:04:08Z</time>
      </trkpt>
      <trkpt lat="43.77056" lon="3.53144">
        <ele>493</ele>
        <time>2020-10-28T10:04:25Z</time>
      </trkpt>
      <trkpt lat="43.77044" lon="3.53153">
        <ele>493</ele>
        <time>2020-10-28T10:04:43Z</time>
      </trkpt>
      <trkpt lat="43.77037" lon="3.5315">
        <ele>492</ele>
        <time>2020-10-28T10:04:53Z</time>
      </trkpt>
      <trkpt lat="43.77018" lon="3.53109">
        <ele>493</ele>
        <time>2020-10-28T10:05:40Z</time>
      </trkpt>
      <trkpt lat="43.76977" lon="3.53074">
        <ele>492</ele>
        <time>2020-10-28T10:06:44Z</time>
      </trkpt>
      <trkpt lat="43.7697" lon="3.53063">
        <ele>492</ele>
        <time>2020-10-28T10:06:58Z</time>
      </trkpt>
      <trkpt lat="43.76961" lon="3.53073">
        <ele>491</ele>
        <time>2020-10-28T10:07:14Z</time>
      </trkpt>
      <trkpt lat="43.76953" lon="3.53111">
        <ele>489</ele>
        <time>2020-10-28T10:07:52Z</time>
      </trkpt>
      <trkpt lat="43.76942" lon="3.53117">
        <ele>489</ele>
        <time>2020-10-28T10:08:08Z</time>
      </trkpt>
      <trkpt lat="43.76906" lon="3.53123">
        <ele>487</ele>
        <time>2020-10-28T10:08:56Z</time>
      </trkpt>
      <trkpt lat="43.76868" lon="3.5315">
        <ele>484</ele>
        <time>2020-10-28T10:09:53Z</time>
      </trkpt>
      <trkpt lat="43.7685" lon="3.53164">
        <ele>483</ele>
        <time>2020-10-28T10:10:21Z</time>
      </trkpt>
      <trkpt lat="43.76836" lon="3.53165">
        <ele>482</ele>
        <time>2020-10-28T10:10:39Z</time>
      </trkpt>
      <trkpt lat="43.76825" lon="3.5317">
        <ele>482</ele>
        <time>2020-10-28T10:10:55Z</time>
      </trkpt>
      <trkpt lat="43.76813" lon="3.53183">
        <ele>482</ele>
        <time>2020-10-28T10:11:15Z</time>
      </trkpt>
      <trkpt lat="43.76811" lon="3.53203">
        <ele>482</ele>
        <time>2020-10-28T10:11:34Z</time>
      </trkpt>
      <trkpt lat="43.76808" lon="3.53209">
        <ele>482</ele>
        <time>2020-10-28T10:11:41Z</time>
      </trkpt>
      <trkpt lat="43.76802" lon="3.53214">
        <ele>482</ele>
        <time>2020-10-28T10:11:51Z</time>
      </trkpt>
      <trkpt lat="43.76794" lon="3.53216">
        <ele>482</ele>
        <time>2020-10-28T10:12:02Z</time>
      </trkpt>
      <trkpt lat="43.76774" lon="3.53215">
        <ele>482</ele>
        <time>2020-10-28T10:12:28Z</time>
      </trkpt>
      <trkpt lat="43.76768" lon="3.53214">
        <ele>482</ele>
        <time>2020-10-28T10:12:36Z</time>
      </trkpt>
      <trkpt lat="43.76754" lon="3.53203">
        <ele>481</ele>
        <time>2020-10-28T10:12:58Z</time>
      </trkpt>
      <trkpt lat="43.76745" lon="3.532">
        <ele>480</ele>
        <time>2020-10-28T10:13:10Z</time>
      </trkpt>
      <trkpt lat="43.7672" lon="3.53201">
        <ele>479</ele>
        <time>2020-10-28T10:13:44Z</time>
      </trkpt>
      <trkpt lat="43.7671" lon="3.53206">
        <ele>478</ele>
        <time>2020-10-28T10:13:58Z</time>
      </trkpt>
      <trkpt lat="43.76688" lon="3.53238">
        <ele>478</ele>
        <time>2020-10-28T10:14:40Z</time>
      </trkpt>
      <trkpt lat="43.76664" lon="3.53261">
        <ele>478</ele>
        <time>2020-10-28T10:15:19Z</time>
      </trkpt>
      <trkpt lat="43.76662" lon="3.53264">
        <ele>478</ele>
        <time>2020-10-28T10:15:23Z</time>
      </trkpt>
      <trkpt lat="43.76625" lon="3.53295">
        <ele>477</ele>
        <time>2020-10-28T10:16:21Z</time>
      </trkpt>
      <trkpt lat="43.76587" lon="3.53332">
        <ele>475</ele>
        <time>2020-10-28T10:17:23Z</time>
      </trkpt>
      <trkpt lat="43.7656" lon="3.53348">
        <ele>475</ele>
        <time>2020-10-28T10:18:02Z</time>
      </trkpt>
      <trkpt lat="43.76553" lon="3.53349">
        <ele>474</ele>
        <time>2020-10-28T10:18:12Z</time>
      </trkpt>
      <trkpt lat="43.76536" lon="3.53357">
        <ele>474</ele>
        <time>2020-10-28T10:18:36Z</time>
      </trkpt>
      <trkpt lat="43.7651" lon="3.53379">
        <ele>475</ele>
        <time>2020-10-28T10:19:16Z</time>
      </trkpt>
      <trkpt lat="43.76483" lon="3.53383">
        <ele>473</ele>
        <time>2020-10-28T10:19:52Z</time>
      </trkpt>
      <trkpt lat="43.76469" lon="3.53392">
        <ele>472</ele>
        <time>2020-10-28T10:20:13Z</time>
      </trkpt>
      <trkpt lat="43.76462" lon="3.53393">
        <ele>472</ele>
        <time>2020-10-28T10:20:22Z</time>
      </trkpt>
      <trkpt lat="43.76444" lon="3.53467">
        <ele>471</ele>
        <time>2020-10-28T10:21:38Z</time>
      </trkpt>
      <trkpt lat="43.76415" lon="3.535">
        <ele>469</ele>
        <time>2020-10-28T10:22:28Z</time>
      </trkpt>
      <trkpt lat="43.76344" lon="3.5351">
        <ele>477</ele>
        <time>2020-10-28T10:24:03Z</time>
      </trkpt>
      <trkpt lat="43.76313" lon="3.53524">
        <ele>481</ele>
        <time>2020-10-28T10:24:47Z</time>
      </trkpt>
      <trkpt lat="43.76278" lon="3.53566">
        <ele>488</ele>
        <time>2020-10-28T10:25:48Z</time>
      </trkpt>
      <trkpt lat="43.76266" lon="3.53571">
        <ele>489</ele>
        <time>2020-10-28T10:26:05Z</time>
      </trkpt>
      <trkpt lat="43.76248" lon="3.5358">
        <ele>491</ele>
        <time>2020-10-28T10:26:31Z</time>
      </trkpt>
      <trkpt lat="43.76247" lon="3.53577">
        <ele>491</ele>
        <time>2020-10-28T10:26:34Z</time>
      </trkpt>
      <trkpt lat="43.76248" lon="3.5358">
        <ele>491</ele>
        <time>2020-10-28T10:26:37Z</time>
      </trkpt>
      <trkpt lat="43.76266" lon="3.53571">
        <ele>489</ele>
        <time>2020-10-28T10:27:03Z</time>
      </trkpt>
      <trkpt lat="43.76262" lon="3.53556">
        <ele>489</ele>
        <time>2020-10-28T10:27:18Z</time>
      </trkpt>
      <trkpt lat="43.76274" lon="3.53542">
        <ele>487</ele>
        <time>2020-10-28T10:27:39Z</time>
      </trkpt>
      <trkpt lat="43.76277" lon="3.53528">
        <ele>485</ele>
        <time>2020-10-28T10:27:53Z</time>
      </trkpt>
      <trkpt lat="43.76257" lon="3.53435">
        <ele>489</ele>
        <time>2020-10-28T10:29:26Z</time>
      </trkpt>
      <trkpt lat="43.76249" lon="3.53422">
        <ele>491</ele>
        <time>2020-10-28T10:29:43Z</time>
      </trkpt>
      <trkpt lat="43.76173" lon="3.53423">
        <ele>500</ele>
        <time>2020-10-28T10:31:24Z</time>
      </trkpt>
      <trkpt lat="43.76153" lon="3.53428">
        <ele>503</ele>
        <time>2020-10-28T10:31:51Z</time>
      </trkpt>
      <trkpt lat="43.76126" lon="3.5344">
        <ele>507</ele>
        <time>2020-10-28T10:32:29Z</time>
      </trkpt>
      <trkpt lat="43.76141" lon="3.53426">
        <ele>505</ele>
        <time>2020-10-28T10:32:53Z</time>
      </trkpt>
      <trkpt lat="43.76151" lon="3.53414">
        <ele>504</ele>
        <time>2020-10-28T10:33:11Z</time>
      </trkpt>
      <trkpt lat="43.76154" lon="3.53402">
        <ele>502</ele>
        <time>2020-10-28T10:33:23Z</time>
      </trkpt>
      <trkpt lat="43.76153" lon="3.53389">
        <ele>502</ele>
        <time>2020-10-28T10:33:36Z</time>
      </trkpt>
      <trkpt lat="43.76147" lon="3.53374">
        <ele>502</ele>
        <time>2020-10-28T10:33:52Z</time>
      </trkpt>
      <trkpt lat="43.76114" lon="3.5333">
        <ele>503</ele>
        <time>2020-10-28T10:34:54Z</time>
      </trkpt>
      <trkpt lat="43.76109" lon="3.5332">
        <ele>502</ele>
        <time>2020-10-28T10:35:05Z</time>
      </trkpt>
      <trkpt lat="43.76103" lon="3.53297">
        <ele>498</ele>
        <time>2020-10-28T10:35:29Z</time>
      </trkpt>
      <trkpt lat="43.76099" lon="3.53287">
        <ele>496</ele>
        <time>2020-10-28T10:35:40Z</time>
      </trkpt>
      <trkpt lat="43.7609" lon="3.53278">
        <ele>495</ele>
        <time>2020-10-28T10:35:55Z</time>
      </trkpt>
      <trkpt lat="43.76073" lon="3.53265">
        <ele>493</ele>
        <time>2020-10-28T10:36:21Z</time>
      </trkpt>
      <trkpt lat="43.76033" lon="3.53242">
        <ele>486</ele>
        <time>2020-10-28T10:37:18Z</time>
      </trkpt>
      <trkpt lat="43.76024" lon="3.53233">
        <ele>485</ele>
        <time>2020-10-28T10:37:33Z</time>
      </trkpt>
      <trkpt lat="43.75992" lon="3.53189">
        <ele>479</ele>
        <time>2020-10-28T10:38:33Z</time>
      </trkpt>
      <trkpt lat="43.75974" lon="3.53145">
        <ele>473</ele>
        <time>2020-10-28T10:39:22Z</time>
      </trkpt>
      <trkpt lat="43.75941" lon="3.53028">
        <ele>459</ele>
        <time>2020-10-28T10:41:23Z</time>
      </trkpt>
      <trkpt lat="43.7594" lon="3.53026">
        <ele>459</ele>
        <time>2020-10-28T10:41:26Z</time>
      </trkpt>
      <trkpt lat="43.75935" lon="3.53012">
        <ele>457</ele>
        <time>2020-10-28T10:41:41Z</time>
      </trkpt>
      <trkpt lat="43.75931" lon="3.53007">
        <ele>457</ele>
        <time>2020-10-28T10:41:48Z</time>
      </trkpt>
      <trkpt lat="43.75924" lon="3.53005">
        <ele>456</ele>
        <time>2020-10-28T10:41:57Z</time>
      </trkpt>
      <trkpt lat="43.75913" lon="3.52998">
        <ele>454</ele>
        <time>2020-10-28T10:42:14Z</time>
      </trkpt>
      <trkpt lat="43.75912" lon="3.52987">
        <ele>453</ele>
        <time>2020-10-28T10:42:24Z</time>
      </trkpt>
      <trkpt lat="43.75915" lon="3.52974">
        <ele>452</ele>
        <time>2020-10-28T10:42:37Z</time>
      </trkpt>
      <trkpt lat="43.7592" lon="3.52971">
        <ele>452</ele>
        <time>2020-10-28T10:42:45Z</time>
      </trkpt>
      <trkpt lat="43.75928" lon="3.52971">
        <ele>452</ele>
        <time>2020-10-28T10:42:55Z</time>
      </trkpt>
      <trkpt lat="43.75934" lon="3.52967">
        <ele>452</ele>
        <time>2020-10-28T10:43:04Z</time>
      </trkpt>
      <trkpt lat="43.75943" lon="3.52958">
        <ele>451</ele>
        <time>2020-10-28T10:43:19Z</time>
      </trkpt>
      <trkpt lat="43.75946" lon="3.52948">
        <ele>449</ele>
        <time>2020-10-28T10:43:29Z</time>
      </trkpt>
      <trkpt lat="43.75947" lon="3.52933">
        <ele>447</ele>
        <time>2020-10-28T10:43:44Z</time>
      </trkpt>
      <trkpt lat="43.75941" lon="3.52904">
        <ele>443</ele>
        <time>2020-10-28T10:44:13Z</time>
      </trkpt>
      <trkpt lat="43.75935" lon="3.52888">
        <ele>440</ele>
        <time>2020-10-28T10:44:30Z</time>
      </trkpt>
      <trkpt lat="43.7593" lon="3.52882">
        <ele>439</ele>
        <time>2020-10-28T10:44:39Z</time>
      </trkpt>
      <trkpt lat="43.75916" lon="3.52883">
        <ele>440</ele>
        <time>2020-10-28T10:44:58Z</time>
      </trkpt>
      <trkpt lat="43.75908" lon="3.52887">
        <ele>440</ele>
        <time>2020-10-28T10:45:09Z</time>
      </trkpt>
      <trkpt lat="43.75903" lon="3.52897">
        <ele>441</ele>
        <time>2020-10-28T10:45:21Z</time>
      </trkpt>
      <trkpt lat="43.75899" lon="3.52918">
        <ele>443</ele>
        <time>2020-10-28T10:45:42Z</time>
      </trkpt>
      <trkpt lat="43.75891" lon="3.52933">
        <ele>444</ele>
        <time>2020-10-28T10:46:00Z</time>
      </trkpt>
      <trkpt lat="43.75868" lon="3.52948">
        <ele>444</ele>
        <time>2020-10-28T10:46:34Z</time>
      </trkpt>
      <trkpt lat="43.75849" lon="3.52971">
        <ele>445</ele>
        <time>2020-10-28T10:47:08Z</time>
      </trkpt>
      <trkpt lat="43.75844" lon="3.52971">
        <ele>445</ele>
        <time>2020-10-28T10:47:14Z</time>
      </trkpt>
      <trkpt lat="43.7584" lon="3.52966">
        <ele>444</ele>
        <time>2020-10-28T10:47:21Z</time>
      </trkpt>
      <trkpt lat="43.75842" lon="3.52955">
        <ele>442</ele>
        <time>2020-10-28T10:47:32Z</time>
      </trkpt>
      <trkpt lat="43.7586" lon="3.52911">
        <ele>439</ele>
        <time>2020-10-28T10:48:21Z</time>
      </trkpt>
      <trkpt lat="43.75859" lon="3.52899">
        <ele>438</ele>
        <time>2020-10-28T10:48:33Z</time>
      </trkpt>
      <trkpt lat="43.75854" lon="3.52892">
        <ele>437</ele>
        <time>2020-10-28T10:48:42Z</time>
      </trkpt>
      <trkpt lat="43.75839" lon="3.52884">
        <ele>435</ele>
        <time>2020-10-28T10:49:04Z</time>
      </trkpt>
      <trkpt lat="43.75835" lon="3.52863">
        <ele>433</ele>
        <time>2020-10-28T10:49:25Z</time>
      </trkpt>
      <trkpt lat="43.75835" lon="3.52842">
        <ele>432</ele>
        <time>2020-10-28T10:49:45Z</time>
      </trkpt>
      <trkpt lat="43.75842" lon="3.52803">
        <ele>430</ele>
        <time>2020-10-28T10:50:24Z</time>
      </trkpt>
      <trkpt lat="43.7584" lon="3.52771">
        <ele>429</ele>
        <time>2020-10-28T10:50:55Z</time>
      </trkpt>
      <trkpt lat="43.75832" lon="3.52741">
        <ele>429</ele>
        <time>2020-10-28T10:51:25Z</time>
      </trkpt>
      <trkpt lat="43.75804" lon="3.52702">
        <ele>430</ele>
        <time>2020-10-28T10:52:18Z</time>
      </trkpt>
      <trkpt lat="43.75776" lon="3.52679">
        <ele>429</ele>
        <time>2020-10-28T10:53:02Z</time>
      </trkpt>
      <trkpt lat="43.75768" lon="3.52672">
        <ele>429</ele>
        <time>2020-10-28T10:53:14Z</time>
      </trkpt>
      <trkpt lat="43.75749" lon="3.52666">
        <ele>427</ele>
        <time>2020-10-28T10:53:40Z</time>
      </trkpt>
      <trkpt lat="43.75735" lon="3.52656">
        <ele>427</ele>
        <time>2020-10-28T10:54:01Z</time>
      </trkpt>
      <trkpt lat="43.75706" lon="3.52623">
        <ele>428</ele>
        <time>2020-10-28T10:54:52Z</time>
      </trkpt>
      <trkpt lat="43.75699" lon="3.52595">
        <ele>428</ele>
        <time>2020-10-28T10:55:20Z</time>
      </trkpt>
      <trkpt lat="43.75704" lon="3.52551">
        <ele>428</ele>
        <time>2020-10-28T10:56:03Z</time>
      </trkpt>
      <trkpt lat="43.75722" lon="3.52478">
        <ele>427</ele>
        <time>2020-10-28T10:57:17Z</time>
      </trkpt>
      <trkpt lat="43.75716" lon="3.52449">
        <ele>426</ele>
        <time>2020-10-28T10:57:46Z</time>
      </trkpt>
      <trkpt lat="43.75689" lon="3.5242">
        <ele>424</ele>
        <time>2020-10-28T10:58:32Z</time>
      </trkpt>
      <trkpt lat="43.75653" lon="3.5241">
        <ele>422</ele>
        <time>2020-10-28T10:59:21Z</time>
      </trkpt>
      <trkpt lat="43.75572" lon="3.52401">
        <ele>419</ele>
        <time>2020-10-28T11:01:09Z</time>
      </trkpt>
      <trkpt lat="43.75536" lon="3.52393">
        <ele>418</ele>
        <time>2020-10-28T11:01:58Z</time>
      </trkpt>
      <trkpt lat="43.75513" lon="3.52376">
        <ele>418</ele>
        <time>2020-10-28T11:02:33Z</time>
      </trkpt>
      <trkpt lat="43.75472" lon="3.52395">
        <ele>417</ele>
        <time>2020-10-28T11:03:31Z</time>
      </trkpt>
      <trkpt lat="43.75444" lon="3.5237">
        <ele>417</ele>
        <time>2020-10-28T11:04:15Z</time>
      </trkpt>
      <trkpt lat="43.75425" lon="3.52344">
        <ele>415</ele>
        <time>2020-10-28T11:04:51Z</time>
      </trkpt>
      <trkpt lat="43.75401" lon="3.52295">
        <ele>416</ele>
        <time>2020-10-28T11:05:48Z</time>
      </trkpt>
      <trkpt lat="43.75359" lon="3.52282">
        <ele>414</ele>
        <time>2020-10-28T11:06:45Z</time>
      </trkpt>
      <trkpt lat="43.75326" lon="3.52288">
        <ele>412</ele>
        <time>2020-10-28T11:07:30Z</time>
      </trkpt>
      <trkpt lat="43.75287" lon="3.52308">
        <ele>411</ele>
        <time>2020-10-28T11:08:25Z</time>
      </trkpt>
      <trkpt lat="43.75266" lon="3.52303">
        <ele>410</ele>
        <time>2020-10-28T11:08:54Z</time>
      </trkpt>
      <trkpt lat="43.75221" lon="3.52258">
        <ele>410</ele>
        <time>2020-10-28T11:10:08Z</time>
      </trkpt>
      <trkpt lat="43.75211" lon="3.52224">
        <ele>411</ele>
        <time>2020-10-28T11:10:43Z</time>
      </trkpt>
      <trkpt lat="43.75194" lon="3.52174">
        <ele>411</ele>
        <time>2020-10-28T11:11:36Z</time>
      </trkpt>
      <trkpt lat="43.75146" lon="3.52095">
        <ele>412</ele>
        <time>2020-10-28T11:13:16Z</time>
      </trkpt>
      <trkpt lat="43.7514" lon="3.5205">
        <ele>411</ele>
        <time>2020-10-28T11:14:00Z</time>
      </trkpt>
      <trkpt lat="43.75137" lon="3.52044">
        <ele>411</ele>
        <time>2020-10-28T11:14:07Z</time>
      </trkpt>
      <trkpt lat="43.75134" lon="3.52048">
        <ele>411</ele>
        <time>2020-10-28T11:14:13Z</time>
      </trkpt>
      <trkpt lat="43.75121" lon="3.52007">
        <ele>408</ele>
        <time>2020-10-28T11:14:56Z</time>
      </trkpt>
      <trkpt lat="43.75092" lon="3.51979">
        <ele>404</ele>
        <time>2020-10-28T11:15:43Z</time>
      </trkpt>
      <trkpt lat="43.7507" lon="3.51962">
        <ele>402</ele>
        <time>2020-10-28T11:16:16Z</time>
      </trkpt>
      <trkpt lat="43.7507" lon="3.51962">
        <ele>402</ele>
        <time>2020-10-28T11:16:16Z</time>
      </trkpt>
      <trkpt lat="43.75036" lon="3.5195">
        <ele>403</ele>
        <time>2020-10-28T11:17:03Z</time>
      </trkpt>
      <trkpt lat="43.75036" lon="3.5195">
        <ele>403</ele>
        <time>2020-10-28T11:17:03Z</time>
      </trkpt>
      <trkpt lat="43.74994" lon="3.51952">
        <ele>404</ele>
        <time>2020-10-28T11:17:59Z</time>
      </trkpt>
      <trkpt lat="43.74936" lon="3.51959">
        <ele>400</ele>
        <time>2020-10-28T11:19:17Z</time>
      </trkpt>
      <trkpt lat="43.74864" lon="3.51969">
        <ele>393</ele>
        <time>2020-10-28T11:20:54Z</time>
      </trkpt>
      <trkpt lat="43.74863" lon="3.51966">
        <ele>393</ele>
        <time>2020-10-28T11:20:57Z</time>
      </trkpt>
      <trkpt lat="43.74841" lon="3.51922">
        <ele>387</ele>
        <time>2020-10-28T11:21:48Z</time>
      </trkpt>
      <trkpt lat="43.74816" lon="3.51879">
        <ele>388</ele>
        <time>2020-10-28T11:22:42Z</time>
      </trkpt>
      <trkpt lat="43.74796" lon="3.51855">
        <ele>388</ele>
        <time>2020-10-28T11:23:17Z</time>
      </trkpt>
      <trkpt lat="43.74774" lon="3.51848">
        <ele>386</ele>
        <time>2020-10-28T11:23:47Z</time>
      </trkpt>
      <trkpt lat="43.74752" lon="3.51832">
        <ele>382</ele>
        <time>2020-10-28T11:24:20Z</time>
      </trkpt>
      <trkpt lat="43.74737" lon="3.5181">
        <ele>385</ele>
        <time>2020-10-28T11:24:49Z</time>
      </trkpt>
      <trkpt lat="43.74704" lon="3.51779">
        <ele>384</ele>
        <time>2020-10-28T11:25:43Z</time>
      </trkpt>
      <trkpt lat="43.7459" lon="3.51686">
        <ele>374</ele>
        <time>2020-10-28T11:28:39Z</time>
      </trkpt>
      <trkpt lat="43.74561" lon="3.51699">
        <ele>371</ele>
        <time>2020-10-28T11:29:20Z</time>
      </trkpt>
      <trkpt lat="43.74532" lon="3.51699">
        <ele>368</ele>
        <time>2020-10-28T11:29:59Z</time>
      </trkpt>
      <trkpt lat="43.74514" lon="3.51697">
        <ele>365</ele>
        <time>2020-10-28T11:30:23Z</time>
      </trkpt>
      <trkpt lat="43.74485" lon="3.51694">
        <ele>363</ele>
        <time>2020-10-28T11:31:01Z</time>
      </trkpt>
      <trkpt lat="43.74468" lon="3.5168">
        <ele>360</ele>
        <time>2020-10-28T11:31:28Z</time>
      </trkpt>
      <trkpt lat="43.74433" lon="3.51679">
        <ele>358</ele>
        <time>2020-10-28T11:32:15Z</time>
      </trkpt>
      <trkpt lat="43.74352" lon="3.5165">
        <ele>349</ele>
        <time>2020-10-28T11:34:06Z</time>
      </trkpt>
      <trkpt lat="43.7432" lon="3.51615">
        <ele>348</ele>
        <time>2020-10-28T11:35:01Z</time>
      </trkpt>
      <trkpt lat="43.74306" lon="3.51615">
        <ele>347</ele>
        <time>2020-10-28T11:35:19Z</time>
      </trkpt>
      <trkpt lat="43.74248" lon="3.51574">
        <ele>338</ele>
        <time>2020-10-28T11:36:46Z</time>
      </trkpt>
      <trkpt lat="43.74207" lon="3.5156">
        <ele>338</ele>
        <time>2020-10-28T11:37:43Z</time>
      </trkpt>
      <trkpt lat="43.74193" lon="3.51551">
        <ele>339</ele>
        <time>2020-10-28T11:38:03Z</time>
      </trkpt>
      <trkpt lat="43.74192" lon="3.51559">
        <ele>337</ele>
        <time>2020-10-28T11:38:11Z</time>
      </trkpt>
      <trkpt lat="43.74193" lon="3.51551">
        <ele>339</ele>
        <time>2020-10-28T11:38:19Z</time>
      </trkpt>
      <trkpt lat="43.74189" lon="3.51545">
        <ele>339</ele>
        <time>2020-10-28T11:38:27Z</time>
      </trkpt>
      <trkpt lat="43.74185" lon="3.51529">
        <ele>341</ele>
        <time>2020-10-28T11:38:43Z</time>
      </trkpt>
      <trkpt lat="43.74187" lon="3.51495">
        <ele>346</ele>
        <time>2020-10-28T11:39:16Z</time>
      </trkpt>
      <trkpt lat="43.74207" lon="3.5146">
        <ele>355</ele>
        <time>2020-10-28T11:39:59Z</time>
      </trkpt>
      <trkpt lat="43.74213" lon="3.51444">
        <ele>358</ele>
        <time>2020-10-28T11:40:16Z</time>
      </trkpt>
      <trkpt lat="43.74205" lon="3.51364">
        <ele>364</ele>
        <time>2020-10-28T11:41:34Z</time>
      </trkpt>
      <trkpt lat="43.74208" lon="3.51336">
        <ele>365</ele>
        <time>2020-10-28T11:42:02Z</time>
      </trkpt>
      <trkpt lat="43.74241" lon="3.51274">
        <ele>366</ele>
        <time>2020-10-28T11:43:16Z</time>
      </trkpt>
      <trkpt lat="43.74246" lon="3.51248">
        <ele>365</ele>
        <time>2020-10-28T11:43:42Z</time>
      </trkpt>
      <trkpt lat="43.74273" lon="3.51231">
        <ele>371</ele>
        <time>2020-10-28T11:44:21Z</time>
      </trkpt>
      <trkpt lat="43.74305" lon="3.51163">
        <ele>373</ele>
        <time>2020-10-28T11:45:40Z</time>
      </trkpt>
      <trkpt lat="43.74314" lon="3.51131">
        <ele>374</ele>
        <time>2020-10-28T11:46:13Z</time>
      </trkpt>
      <trkpt lat="43.74328" lon="3.51112">
        <ele>373</ele>
        <time>2020-10-28T11:46:39Z</time>
      </trkpt>
      <trkpt lat="43.74328" lon="3.51103">
        <ele>373</ele>
        <time>2020-10-28T11:46:47Z</time>
      </trkpt>
      <trkpt lat="43.74327" lon="3.51095">
        <ele>373</ele>
        <time>2020-10-28T11:46:55Z</time>
      </trkpt>
      <trkpt lat="43.74311" lon="3.51048">
        <ele>378</ele>
        <time>2020-10-28T11:47:45Z</time>
      </trkpt>
      <trkpt lat="43.74314" lon="3.51024">
        <ele>380</ele>
        <time>2020-10-28T11:48:09Z</time>
      </trkpt>
      <trkpt lat="43.74312" lon="3.5102">
        <ele>380</ele>
        <time>2020-10-28T11:48:14Z</time>
      </trkpt>
      <trkpt lat="43.7431" lon="3.5102">
        <ele>380</ele>
        <time>2020-10-28T11:48:16Z</time>
      </trkpt>
      <trkpt lat="43.74308" lon="3.5102">
        <ele>381</ele>
        <time>2020-10-28T11:48:19Z</time>
      </trkpt>
      <trkpt lat="43.74307" lon="3.50986">
        <ele>383</ele>
        <time>2020-10-28T11:48:52Z</time>
      </trkpt>
      <trkpt lat="43.74304" lon="3.50973">
        <ele>384</ele>
        <time>2020-10-28T11:49:05Z</time>
      </trkpt>
      <trkpt lat="43.74289" lon="3.50952">
        <ele>386</ele>
        <time>2020-10-28T11:49:33Z</time>
      </trkpt>
      <trkpt lat="43.74287" lon="3.50946">
        <ele>386</ele>
        <time>2020-10-28T11:49:40Z</time>
      </trkpt>
      <trkpt lat="43.74284" lon="3.50919">
        <ele>387</ele>
        <time>2020-10-28T11:50:06Z</time>
      </trkpt>
      <trkpt lat="43.74276" lon="3.50885">
        <ele>390</ele>
        <time>2020-10-28T11:50:41Z</time>
      </trkpt>
      <trkpt lat="43.74275" lon="3.50864">
        <ele>391</ele>
        <time>2020-10-28T11:51:01Z</time>
      </trkpt>
      <trkpt lat="43.74268" lon="3.50819">
        <ele>394</ele>
        <time>2020-10-28T11:51:45Z</time>
      </trkpt>
      <trkpt lat="43.74264" lon="3.50805">
        <ele>395</ele>
        <time>2020-10-28T11:52:00Z</time>
      </trkpt>
      <trkpt lat="43.74261" lon="3.50763">
        <ele>398</ele>
        <time>2020-10-28T11:52:40Z</time>
      </trkpt>
      <trkpt lat="43.74263" lon="3.50732">
        <ele>400</ele>
        <time>2020-10-28T11:53:10Z</time>
      </trkpt>
      <trkpt lat="43.74266" lon="3.5072">
        <ele>402</ele>
        <time>2020-10-28T11:53:23Z</time>
      </trkpt>
      <trkpt lat="43.74267" lon="3.50698">
        <ele>403</ele>
        <time>2020-10-28T11:53:44Z</time>
      </trkpt>
      <trkpt lat="43.74255" lon="3.5067">
        <ele>405</ele>
        <time>2020-10-28T11:54:15Z</time>
      </trkpt>
      <trkpt lat="43.74251" lon="3.50651">
        <ele>408</ele>
        <time>2020-10-28T11:54:34Z</time>
      </trkpt>
      <trkpt lat="43.74242" lon="3.50644">
        <ele>411</ele>
        <time>2020-10-28T11:54:48Z</time>
      </trkpt>
      <trkpt lat="43.7424" lon="3.50641">
        <ele>412</ele>
        <time>2020-10-28T11:54:52Z</time>
      </trkpt>
      <trkpt lat="43.7424" lon="3.50636">
        <ele>413</ele>
        <time>2020-10-28T11:54:57Z</time>
      </trkpt>
      <trkpt lat="43.74248" lon="3.50629">
        <ele>412</ele>
        <time>2020-10-28T11:55:10Z</time>
      </trkpt>
      <trkpt lat="43.74252" lon="3.50627">
        <ele>412</ele>
        <time>2020-10-28T11:55:15Z</time>
      </trkpt>
      <trkpt lat="43.74254" lon="3.50623">
        <ele>413</ele>
        <time>2020-10-28T11:55:20Z</time>
      </trkpt>
      <trkpt lat="43.74258" lon="3.50594">
        <ele>419</ele>
        <time>2020-10-28T11:55:48Z</time>
      </trkpt>
      <trkpt lat="43.7427" lon="3.5055">
        <ele>426</ele>
        <time>2020-10-28T11:56:34Z</time>
      </trkpt>
      <trkpt lat="43.74269" lon="3.50531">
        <ele>428</ele>
        <time>2020-10-28T11:56:52Z</time>
      </trkpt>
      <trkpt lat="43.74259" lon="3.50508">
        <ele>430</ele>
        <time>2020-10-28T11:57:18Z</time>
      </trkpt>
      <trkpt lat="43.7424" lon="3.50487">
        <ele>433</ele>
        <time>2020-10-28T11:57:50Z</time>
      </trkpt>
      <trkpt lat="43.74235" lon="3.50487">
        <ele>434</ele>
        <time>2020-10-28T11:57:57Z</time>
      </trkpt>
      <trkpt lat="43.74211" lon="3.50494">
        <ele>434</ele>
        <time>2020-10-28T11:58:30Z</time>
      </trkpt>
      <trkpt lat="43.74199" lon="3.50484">
        <ele>437</ele>
        <time>2020-10-28T11:58:48Z</time>
      </trkpt>
      <trkpt lat="43.74191" lon="3.50484">
        <ele>437</ele>
        <time>2020-10-28T11:58:59Z</time>
      </trkpt>
      <trkpt lat="43.74178" lon="3.50503">
        <ele>436</ele>
        <time>2020-10-28T11:59:24Z</time>
      </trkpt>
      <trkpt lat="43.7417" lon="3.50508">
        <ele>436</ele>
        <time>2020-10-28T11:59:36Z</time>
      </trkpt>
      <trkpt lat="43.7416" lon="3.50509">
        <ele>436</ele>
        <time>2020-10-28T11:59:49Z</time>
      </trkpt>
      <trkpt lat="43.74116" lon="3.50537">
        <ele>436</ele>
        <time>2020-10-28T12:00:54Z</time>
      </trkpt>
      <trkpt lat="43.74109" lon="3.50525">
        <ele>437</ele>
        <time>2020-10-28T12:01:09Z</time>
      </trkpt>
      <trkpt lat="43.74094" lon="3.50507">
        <ele>438</ele>
        <time>2020-10-28T12:01:35Z</time>
      </trkpt>
      <trkpt lat="43.7409" lon="3.50491">
        <ele>439</ele>
        <time>2020-10-28T12:01:52Z</time>
      </trkpt>
      <trkpt lat="43.74088" lon="3.50465">
        <ele>439</ele>
        <time>2020-10-28T12:02:17Z</time>
      </trkpt>
      <trkpt lat="43.74093" lon="3.50425">
        <ele>440</ele>
        <time>2020-10-28T12:02:56Z</time>
      </trkpt>
      <trkpt lat="43.74109" lon="3.50391">
        <ele>443</ele>
        <time>2020-10-28T12:03:35Z</time>
      </trkpt>
      <trkpt lat="43.74114" lon="3.50369">
        <ele>446</ele>
        <time>2020-10-28T12:03:57Z</time>
      </trkpt>
      <trkpt lat="43.74118" lon="3.50278">
        <ele>452</ele>
        <time>2020-10-28T12:05:25Z</time>
      </trkpt>
      <trkpt lat="43.74124" lon="3.50258">
        <ele>454</ele>
        <time>2020-10-28T12:05:46Z</time>
      </trkpt>
    </trkseg>
  </trk>
</gpx>